Raw METAR:
KATT 210751Z AUTO 00000KT 10SM BKN070 09/03 A2998 RMK AO2 SLP153 T00890033

Visibility:
10 mi.

Clouds:
Broken at 7000 ft.

Remarks:
RMK AO2 SLP153 T00890033

Broken at 7000 ft
10 miles